Time;durP1;ratioP1;P1;durP2;ratioP2;P2;SDS_P1;SDS_P2;PMS_P1;PMS_P2;Temp;Humidity;BMP_temperature;BMP_pressure;BME280_temperature;BME280_humidity;BME280_pressure;Samples;Min_cycle;Max_cycle;Signal;HPM_P1;HPM_P2
2023/07/01 00:01:01;;;;;;;24.20;17.77;;;20.60;99.90;;;;;;5003705;28;20080;-80
2023/07/01 00:03:30;;;;;;;22.80;20.42;;;20.60;99.90;;;;;;4951824;28;20049;-80
2023/07/01 00:05:58;;;;;;;21.52;19.35;;;20.60;99.90;;;;;;4983394;28;20033;-80
2023/07/01 00:08:24;;;;;;;22.48;19.95;;;20.60;99.90;;;;;;4966281;28;20517;-80
2023/07/01 00:10:50;;;;;;;24.17;21.88;;;20.70;99.90;;;;;;4984953;28;20062;-81
2023/07/01 00:13:16;;;;;;;26.75;23.90;;;20.70;99.90;;;;;;4969341;28;20282;-80
2023/07/01 00:15:42;;;;;;;30.73;27.38;;;20.80;99.90;;;;;;4962557;28;20027;-81
2023/07/01 00:18:11;;;;;;;33.08;29.63;;;20.80;99.90;;;;;;4969459;28;20035;-81
2023/07/01 00:20:37;;;;;;;33.83;28.33;;;20.80;99.90;;;;;;4942145;28;20026;-80
2023/07/01 00:23:03;;;;;;;33.92;30.67;;;20.80;99.90;;;;;;4976165;28;20074;-81
2023/07/01 00:25:29;;;;;;;31.15;27.85;;;20.80;99.90;;;;;;4970497;28;20031;-81
2023/07/01 00:27:55;;;;;;;33.23;29.70;;;20.80;99.90;;;;;;4961924;28;20538;-81
2023/07/01 00:30:21;;;;;;;29.20;26.13;;;20.90;99.90;;;;;;4958144;28;20030;-82
2023/07/01 00:32:50;;;;;;;28.73;25.83;;;20.90;99.90;;;;;;4950779;29;20047;-82
2023/07/01 00:35:16;;;;;;;27.77;24.23;;;21.00;99.90;;;;;;4979366;28;20035;-81
2023/07/01 00:37:45;;;;;;;25.85;22.55;;;21.00;99.90;;;;;;4971085;28;20038;-81
2023/07/01 00:40:11;;;;;;;21.73;19.50;;;21.00;99.90;;;;;;4964005;29;20042;-80
2023/07/01 00:42:37;;;;;;;21.03;19.03;;;20.90;99.90;;;;;;4971645;28;20154;-81
2023/07/01 00:45:04;;;;;;;19.47;17.60;;;20.90;99.90;;;;;;4957589;28;20039;-82
2023/07/01 00:47:30;;;;;;;;;;;20.90;99.90;;;;;;4961078;28;20034;-82
2023/07/01 00:49:57;;;;;;;19.48;17.48;;;20.90;99.90;;;;;;4985956;28;19918;-82
2023/07/01 00:52:25;;;;;;;20.58;18.17;;;20.90;99.90;;;;;;4979708;28;20031;-81
2023/07/01 00:54:51;;;;;;;;;;;20.80;99.90;;;;;;4958715;28;20031;-81
2023/07/01 00:57:17;;;;;;;21.17;19.02;;;20.80;99.90;;;;;;4987485;28;19917;-81
2023/07/01 00:59:43;;;;;;;21.48;18.40;;;20.80;99.90;;;;;;5008065;28;20118;-81
2023/07/01 01:02:30;;;;;;;22.77;20.47;;;20.80;99.90;;;;;;4990105;28;20136;-80
2023/07/01 01:05:14;;;;;;;21.20;19.10;;;20.80;99.90;;;;;;4987017;28;20267;-81
2023/07/01 01:07:52;;;;;;;22.02;19.73;;;20.90;99.90;;;;;;4969094;28;20063;-80
2023/07/01 01:10:22;;;;;;;19.88;17.75;;;20.80;99.90;;;;;;4969649;28;20089;-80
2023/07/01 01:12:53;;;;;;;20.42;18.33;;;20.80;99.90;;;;;;4992067;28;20026;-80
2023/07/01 01:15:25;;;;;;;21.88;19.60;;;20.80;99.90;;;;;;5007072;28;20042;-81
2023/07/01 01:17:55;;;;;;;21.05;18.95;;;20.80;99.90;;;;;;4989668;28;20419;-81
2023/07/01 01:47:01;;;;;;;;;;;20.70;99.90;;;;;;5005671;28;20046;-81
2023/07/01 01:49:28;;;;;;;20.58;18.40;;;20.80;99.90;;;;;;4964772;28;19910;-82
2023/07/01 01:51:55;;;;;;;18.88;17.08;;;20.80;99.90;;;;;;4971514;28;20444;-82
2023/07/01 01:54:22;;;;;;;20.60;18.55;;;20.70;99.90;;;;;;4981967;28;20036;-81
2023/07/01 01:56:53;;;;;;;20.35;18.35;;;20.80;99.90;;;;;;4976446;28;20073;-81
2023/07/01 01:59:22;;;;;;;20.63;18.52;;;20.80;99.90;;;;;;4973607;28;20035;-82
2023/07/01 02:01:52;;;;;;;19.98;18.08;;;20.80;99.90;;;;;;4956578;28;20098;-81
2023/07/01 02:04:19;;;;;;;21.30;19.17;;;20.80;99.90;;;;;;4960405;28;20867;-82
2023/07/01 02:06:51;;;;;;;19.88;16.83;;;20.80;99.90;;;;;;4959357;28;20015;-82
2023/07/01 02:09:20;;;;;;;17.00;15.20;;;20.80;99.90;;;;;;4950810;29;20034;-81
2023/07/01 02:11:46;;;;;;;15.35;13.95;;;20.80;99.90;;;;;;4962024;28;20042;-81
2023/07/01 02:14:12;;;;;;;16.65;14.95;;;20.80;99.90;;;;;;4954094;28;20472;-82
2023/07/01 02:16:40;;;;;;;14.63;12.93;;;20.80;99.90;;;;;;4962041;28;20050;-81
2023/07/01 02:19:06;;;;;;;13.07;10.90;;;20.80;99.90;;;;;;4979711;28;20033;-81
2023/07/01 02:21:32;;;;;;;15.85;11.80;;;20.80;99.90;;;;;;4953133;28;20091;-81
2023/07/01 02:23:58;;;;;;;13.30;11.90;;;20.80;99.90;;;;;;4951548;28;20050;-81
2023/07/01 02:26:25;;;;;;;11.47;10.37;;;20.80;99.90;;;;;;4968881;28;20027;-82
2023/07/01 02:28:51;;;;;;;13.60;11.82;;;20.70;99.90;;;;;;4960804;28;20384;-82
2023/07/01 02:31:18;;;;;;;13.37;12.03;;;20.70;99.90;;;;;;4962766;28;20042;-82
2023/07/01 02:33:44;;;;;;;14.48;12.95;;;20.70;99.90;;;;;;4957600;28;20035;-82
2023/07/01 02:36:11;;;;;;;16.02;14.43;;;20.70;99.90;;;;;;4969442;28;20023;-82
2023/07/01 02:38:37;;;;;;;17.20;15.07;;;20.70;99.90;;;;;;4987126;28;20034;-82
2023/07/01 02:41:04;;;;;;;16.58;14.85;;;20.70;99.90;;;;;;4986710;28;20265;-83
2023/07/01 02:43:33;;;;;;;17.15;15.35;;;20.70;99.90;;;;;;4954610;28;20046;-81
2023/07/01 02:45:59;;;;;;;18.35;14.32;;;20.70;99.90;;;;;;4959624;28;20027;-80
2023/07/01 02:48:25;;;;;;;18.05;16.23;;;20.70;99.90;;;;;;4958884;29;20057;-80
2023/07/01 02:50:50;;;;;;;19.33;17.33;;;20.70;99.90;;;;;;4974222;28;20519;-79
2023/07/01 02:53:18;;;;;;;19.13;17.10;;;20.70;99.90;;;;;;4953447;28;20031;-80
2023/07/01 02:55:44;;;;;;;18.48;16.67;;;20.70;99.90;;;;;;4962293;28;20488;-81
2023/07/01 02:58:10;;;;;;;20.07;17.70;;;20.70;99.90;;;;;;4967444;28;20122;-80
2023/07/01 03:00:36;;;;;;;18.02;16.30;;;20.70;99.90;;;;;;4953424;29;20047;-81
2023/07/01 03:03:07;;;;;;;19.05;17.15;;;20.70;99.90;;;;;;4964342;28;20061;-80
2023/07/01 03:05:37;;;;;;;21.88;17.20;;;20.70;99.90;;;;;;4956811;29;20067;-80
2023/07/01 03:08:07;;;;;;;19.88;17.70;;;20.70;99.90;;;;;;4971687;28;20027;-79
2023/07/01 03:10:34;;;;;;;20.00;17.85;;;20.70;99.90;;;;;;4953451;28;20777;-80
2023/07/01 03:13:00;;;;;;;23.05;19.58;;;20.80;99.90;;;;;;4975395;28;20034;-81
2023/07/01 03:15:26;;;;;;;20.50;18.30;;;20.80;99.90;;;;;;4970087;28;20030;-81
2023/07/01 03:17:52;;;;;;;22.52;20.33;;;20.80;99.90;;;;;;4974544;28;20046;-80
2023/07/01 03:20:24;;;;;;;;;;;20.70;99.90;;;;;;4978983;28;20114;-80
2023/07/01 03:22:56;;;;;;;19.30;17.38;;;20.70;99.90;;;;;;4989194;28;19910;-80
2023/07/01 03:25:26;;;;;;;15.23;13.73;;;20.70;99.90;;;;;;4965906;28;20082;-80
2023/07/01 03:27:53;;;;;;;17.50;15.60;;;20.70;99.90;;;;;;4971827;28;20035;-80
2023/07/01 03:30:22;;;;;;;18.48;16.38;;;20.70;99.90;;;;;;4955287;28;20057;-80
2023/07/01 03:32:48;;;;;;;16.20;14.70;;;20.70;99.90;;;;;;4962258;28;20034;-80
2023/07/01 03:51:50;;;;;;;21.77;19.25;;;20.20;99.90;;;;;;4284117;26;20439;-79
2023/07/01 03:54:16;;;;;;;19.50;17.35;;;20.20;99.90;;;;;;4945579;29;20047;-79
2023/07/01 03:56:42;;;;;;;18.48;16.67;;;20.30;99.90;;;;;;4944337;29;20059;-79
2023/07/01 03:59:08;;;;;;;19.83;17.75;;;20.40;99.90;;;;;;4927525;29;20456;-79
2023/07/01 04:01:36;;;;;;;18.77;16.80;;;20.40;99.90;;;;;;4927014;29;20087;-79
2023/07/01 04:04:03;;;;;;;17.38;15.52;;;20.40;99.90;;;;;;4944503;29;20082;-79
2023/07/01 04:06:29;;;;;;;;;;;20.50;99.90;;;;;;4944896;29;20019;-79
2023/07/01 04:08:58;;;;;;;20.90;17.30;;;20.50;99.90;;;;;;4910985;29;19954;-80
2023/07/01 04:11:24;;;;;;;17.15;15.27;;;20.40;99.90;;;;;;4943438;29;20519;-80
2023/07/01 04:13:50;;;;;;;23.23;16.63;;;20.40;99.90;;;;;;4925916;29;20106;-79
2023/07/01 04:16:16;;;;;;;17.33;15.48;;;20.30;99.90;;;;;;4910746;29;20027;-80
2023/07/01 04:18:42;;;;;;;16.92;15.25;;;20.30;99.90;;;;;;4943653;29;20512;-79
2023/07/01 04:21:08;;;;;;;16.00;14.40;;;20.30;99.90;;;;;;4943420;29;20028;-79
2023/07/01 04:23:35;;;;;;;16.10;14.50;;;20.30;99.90;;;;;;4926553;29;20110;-79
2023/07/01 04:26:05;;;;;;;16.50;14.88;;;20.40;99.90;;;;;;4943121;29;20420;-80
2023/07/01 04:28:31;;;;;;;17.65;14.02;;;20.40;99.90;;;;;;4942702;29;20043;-79
2023/07/01 04:38:36;;;;;;;;;;;20.20;99.90;;;;;;4942326;29;20042;-79
2023/07/01 04:41:01;;;;;;;16.60;14.90;;;20.30;99.90;;;;;;4941209;29;19911;-80
2023/07/01 04:43:30;;;;;;;17.98;16.27;;;20.40;99.90;;;;;;4940739;29;20042;-79
2023/07/01 04:45:56;;;;;;;18.67;16.75;;;20.40;99.90;;;;;;4924068;29;20110;-79
2023/07/01 04:48:22;;;;;;;17.73;15.85;;;20.30;99.90;;;;;;4923511;29;20074;-79
2023/07/01 04:50:48;;;;;;;17.98;16.27;;;20.20;99.90;;;;;;4940412;29;20035;-80
2023/07/01 04:53:14;;;;;;;20.35;18.25;;;20.20;99.90;;;;;;4926001;29;20406;-79
2023/07/01 04:55:40;;;;;;;20.50;18.03;;;20.30;99.90;;;;;;4924782;29;20032;-80
2023/07/01 04:58:06;;;;;;;19.48;17.58;;;20.30;99.90;;;;;;4923715;29;20504;-80
2023/07/01 05:00:33;;;;;;;18.63;16.73;;;20.30;99.90;;;;;;4941764;29;20036;-79
2023/07/01 05:02:59;;;;;;;21.77;16.70;;;20.40;99.90;;;;;;4943612;29;20396;-79
2023/07/01 05:05:25;;;;;;;18.35;16.60;;;20.60;99.90;;;;;;4925473;29;20028;-79
2023/07/01 05:07:51;;;;;;;23.83;20.08;;;20.50;99.90;;;;;;4926306;29;20086;-79
2023/07/01 05:10:20;;;;;;;22.97;19.13;;;20.50;99.90;;;;;;4926438;29;20099;-79
2023/07/01 05:12:46;;;;;;;21.35;19.15;;;20.40;99.90;;;;;;4943453;29;20039;-79
2023/07/01 05:15:12;;;;;;;19.63;17.67;;;20.50;99.90;;;;;;4910615;29;20036;-79
2023/07/01 05:17:38;;;;;;;20.63;18.48;;;20.60;99.90;;;;;;4943361;29;20038;-79
2023/07/01 05:20:13;;;;;;;19.93;17.87;;;20.60;99.90;;;;;;4909646;29;20080;-78
2023/07/01 05:22:39;;;;;;;19.55;17.55;;;20.60;99.90;;;;;;4941781;29;20059;-79
2023/07/01 05:25:05;;;;;;;21.05;18.90;;;20.50;99.90;;;;;;4936401;29;20056;-80
2023/07/01 05:27:34;;;;;;;19.00;17.10;;;20.60;99.90;;;;;;4944047;28;20031;-82
2023/07/01 05:30:05;;;;;;;20.08;17.98;;;20.70;99.90;;;;;;4922789;29;20035;-83
2023/07/01 05:32:31;;;;;;;20.17;18.15;;;20.70;99.90;;;;;;4938124;29;20042;-83
2023/07/01 05:35:02;;;;;;;19.75;17.85;;;20.60;99.90;;;;;;4937147;29;20023;-87
2023/07/01 05:37:28;;;;;;;16.88;15.10;;;20.70;99.90;;;;;;4937818;29;20027;-84
2023/07/01 05:39:57;;;;;;;19.10;17.17;;;20.80;99.90;;;;;;4939552;29;20023;-84
2023/07/01 05:42:22;;;;;;;18.40;16.60;;;20.80;99.90;;;;;;4931134;29;20492;-83
2023/07/01 05:44:48;;;;;;;18.05;16.40;;;20.70;99.90;;;;;;4919996;29;20085;-83
2023/07/01 05:47:14;;;;;;;20.52;18.40;;;20.80;99.90;;;;;;4903506;29;20038;-83
2023/07/01 05:49:40;;;;;;;21.00;18.30;;;20.90;99.90;;;;;;4903526;29;20064;-82
2023/07/01 05:52:09;;;;;;;20.03;17.83;;;20.90;99.90;;;;;;4930407;29;20514;-82
2023/07/01 05:54:35;;;;;;;20.38;18.30;;;20.80;99.90;;;;;;4937343;29;20027;-82
2023/07/01 05:57:01;;;;;;;17.88;16.00;;;20.70;99.90;;;;;;4937254;29;20031;-82
2023/07/01 05:59:30;;;;;;;17.85;16.08;;;20.70;99.90;;;;;;4937269;29;20028;-82
2023/07/01 06:01:56;;;;;;;18.15;16.35;;;20.70;99.90;;;;;;4909011;29;20031;-82
2023/07/01 06:04:24;;;;;;;16.55;15.00;;;20.70;99.90;;;;;;4937952;29;20070;-83
2023/07/01 06:06:50;;;;;;;17.98;16.15;;;20.70;99.90;;;;;;4941294;29;20441;-82
2023/07/01 06:09:16;;;;;;;17.90;16.02;;;20.60;99.90;;;;;;4918134;29;20042;-82
2023/07/01 06:11:42;;;;;;;16.97;15.40;;;20.60;99.90;;;;;;4917779;29;20492;-83
2023/07/01 06:14:11;;;;;;;16.88;14.30;;;20.80;99.90;;;;;;4917897;29;20032;-83
2023/07/01 06:16:40;;;;;;;16.60;14.85;;;21.10;99.90;;;;;;4917255;29;20027;-83
2023/07/01 06:19:06;;;;;;;16.38;14.45;;;21.30;99.90;;;;;;4934692;29;20028;-83
2023/07/01 06:21:32;;;;;;;14.90;13.48;;;21.40;99.90;;;;;;4917532;29;20032;-85
2023/07/01 06:23:58;;;;;;;15.63;12.83;;;21.60;99.90;;;;;;4934560;29;20036;-83
2023/07/01 06:26:24;;;;;;;15.03;13.30;;;21.60;99.90;;;;;;4930669;29;20027;-84
2023/07/01 06:28:50;;;;;;;23.73;14.93;;;21.50;99.90;;;;;;4920674;29;20051;-83
2023/07/01 06:31:19;;;;;;;16.60;14.80;;;21.20;99.90;;;;;;4953628;28;20560;-83
2023/07/01 06:33:45;;;;;;;16.08;14.48;;;21.10;99.90;;;;;;4936430;29;20451;-84
2023/07/01 06:36:12;;;;;;;16.63;15.10;;;21.10;99.90;;;;;;4952772;29;20026;-84
2023/07/01 06:38:53;;;;;;;14.80;13.48;;;21.10;99.90;;;;;;4953579;29;20042;-88
2023/07/01 06:41:19;;;;;;;17.90;14.30;;;20.90;99.90;;;;;;4936682;29;20051;-83
2023/07/01 06:43:45;;;;;;;17.38;15.57;;;20.90;99.90;;;;;;4936473;29;20066;-85
2023/07/01 06:46:10;;;;;;;16.70;15.07;;;20.90;99.90;;;;;;4932219;29;20019;-85
2023/07/01 06:48:37;;;;;;;17.50;14.80;;;21.00;99.90;;;;;;4936281;29;20090;-85
2023/07/01 06:51:04;;;;;;;18.63;16.77;;;21.10;99.90;;;;;;4920508;29;20043;-84
2023/07/01 06:53:33;;;;;;;18.63;16.75;;;21.20;99.90;;;;;;4942280;29;20114;-85
2023/07/01 06:56:00;;;;;;;19.10;17.20;;;21.20;99.90;;;;;;4908886;29;20027;-88
2023/07/01 06:58:26;;;;;;;20.00;18.00;;;21.30;99.90;;;;;;4936474;29;20407;-84
2023/07/01 07:00:52;;;;;;;21.15;19.02;;;21.40;99.90;;;;;;4936528;29;20031;-84
2023/07/01 07:03:21;;;;;;;23.35;20.90;;;21.30;99.90;;;;;;4953624;28;20056;-83
2023/07/01 07:05:47;;;;;;;18.13;16.40;;;21.50;99.90;;;;;;4936514;29;20034;-81
2023/07/01 07:08:13;;;;;;;17.37;15.80;;;21.60;99.90;;;;;;4953468;29;20042;-83
2023/07/01 07:10:38;;;;;;;16.17;14.68;;;21.70;99.90;;;;;;4954047;28;20027;-83
2023/07/01 07:13:04;;;;;;;17.43;15.63;;;21.80;99.90;;;;;;4953354;29;20110;-81
2023/07/01 07:15:30;;;;;;;17.10;15.43;;;21.90;99.90;;;;;;4957548;28;20067;-81
2023/07/01 07:17:56;;;;;;;17.02;15.23;;;22.00;99.90;;;;;;4939749;29;20031;-81
2023/07/01 07:20:22;;;;;;;17.52;15.75;;;22.10;99.90;;;;;;4936323;29;20024;-82
2023/07/01 07:22:51;;;;;;;17.97;16.13;;;22.20;99.90;;;;;;4904695;29;20035;-80
2023/07/01 07:25:18;;;;;;;15.77;14.18;;;22.30;99.90;;;;;;4937358;29;20044;-81
2023/07/01 07:27:44;;;;;;;16.20;14.50;;;22.30;99.90;;;;;;4953385;29;20055;-81
2023/07/01 07:30:14;;;;;;;18.10;16.30;;;22.40;99.90;;;;;;4956655;28;20031;-81
2023/07/01 07:32:40;;;;;;;16.92;15.30;;;22.40;99.90;;;;;;4939568;29;20074;-81
2023/07/01 07:35:09;;;;;;;17.40;14.88;;;22.50;99.90;;;;;;4955354;29;20039;-82
2023/07/01 07:37:36;;;;;;;18.23;16.38;;;22.50;99.90;;;;;;4937180;29;20497;-79
2023/07/01 07:40:11;;;;;;;18.30;16.42;;;22.60;99.90;;;;;;4920329;29;20078;-80
2023/07/01 07:42:37;;;;;;;16.67;15.00;;;22.60;99.90;;;;;;4937293;29;20044;-80
2023/07/01 07:45:07;;;;;;;17.13;15.45;;;22.60;99.90;;;;;;4937592;29;20392;-80
2023/07/01 07:47:33;;;;;;;15.52;13.98;;;22.70;99.90;;;;;;4956241;28;20031;-80
2023/07/01 07:50:01;;;;;;;15.52;14.13;;;22.80;99.90;;;;;;4939138;29;20392;-85
2023/07/01 07:52:28;;;;;;;16.27;14.70;;;22.90;99.90;;;;;;4938687;29;20038;-81
2023/07/01 07:54:54;;;;;;;16.27;14.85;;;23.10;99.90;;;;;;4938490;29;20042;-80
2023/07/01 07:57:20;;;;;;;15.97;14.37;;;23.10;99.90;;;;;;4939111;29;20031;-81
2023/07/01 07:59:46;;;;;;;12.77;11.47;;;23.20;99.90;;;;;;4958937;29;20047;-80
2023/07/01 08:02:12;;;;;;;12.73;10.87;;;23.30;99.90;;;;;;4943222;29;20411;-80
2023/07/01 08:04:38;;;;;;;13.13;11.73;;;23.50;99.90;;;;;;4941528;29;20407;-79
2023/07/01 08:07:05;;;;;;;13.07;11.77;;;23.60;99.90;;;;;;4958321;29;20400;-79
2023/07/01 08:09:31;;;;;;;14.00;12.60;;;23.70;99.90;;;;;;4958033;29;20035;-80
2023/07/01 08:11:58;;;;;;;12.77;11.47;;;23.80;99.90;;;;;;4941939;29;20535;-80
2023/07/01 08:14:29;;;;;;;10.98;9.88;;;23.80;99.50;;;;;;4926390;29;20034;-79
2023/07/01 08:17:02;;;;;;;12.75;10.00;;;23.90;99.60;;;;;;4960528;28;20030;-80
2023/07/01 08:19:29;;;;;;;12.25;11.07;;;24.00;98.70;;;;;;4959190;29;20028;-79
2023/07/01 08:21:55;;;;;;;;;;;24.10;98.90;;;;;;4959918;29;20077;-80
2023/07/01 08:24:21;;;;;;;11.55;10.45;;;24.20;98.30;;;;;;4944972;29;19977;-79
2023/07/01 08:26:50;;;;;;;11.03;10.03;;;24.30;98.90;;;;;;4960212;28;20042;-80
2023/07/01 08:29:16;;;;;;;11.50;9.25;;;24.40;98.80;;;;;;4960222;28;20275;-80
2023/07/01 08:31:42;;;;;;;15.43;11.03;;;24.40;97.20;;;;;;4960099;29;20035;-80
2023/07/01 08:34:08;;;;;;;11.87;10.83;;;24.40;97.00;;;;;;4959317;29;20130;-79
2023/07/01 08:36:34;;;;;;;11.43;8.77;;;24.40;97.20;;;;;;4941912;29;20031;-80
2023/07/01 08:39:00;;;;;;;11.67;9.33;;;24.50;97.40;;;;;;4959555;29;20034;-79
2023/07/01 08:41:28;;;;;;;10.57;9.57;;;24.60;96.70;;;;;;4942323;29;20114;-79
2023/07/01 08:43:54;;;;;;;9.70;8.55;;;24.70;96.50;;;;;;4943056;29;20035;-80
2023/07/01 08:46:20;;;;;;;11.00;9.45;;;24.80;96.00;;;;;;4959134;29;20043;-80
2023/07/01 08:48:47;;;;;;;9.27;8.38;;;24.90;95.60;;;;;;4959837;29;20046;-79
2023/07/01 08:51:22;;;;;;;11.65;8.20;;;25.10;95.20;;;;;;4960244;28;20499;-80
2023/07/01 08:53:50;;;;;;;9.63;8.70;;;25.20;93.70;;;;;;4961322;29;20034;-80
2023/07/01 08:56:22;;;;;;;10.75;9.77;;;25.30;93.70;;;;;;4960632;29;20106;-80
2023/07/01 08:58:49;;;;;;;12.02;10.40;;;25.40;93.50;;;;;;4960566;29;20034;-79
2023/07/01 09:01:16;;;;;;;11.43;10.13;;;25.60;93.90;;;;;;4961289;28;20031;-79
2023/07/01 09:03:43;;;;;;;11.88;9.65;;;25.70;92.80;;;;;;4943925;29;20058;-80
2023/07/01 09:06:09;;;;;;;13.63;12.20;;;25.80;92.20;;;;;;4961364;29;20028;-79
2023/07/01 09:08:39;;;;;;;11.73;10.40;;;25.90;91.60;;;;;;4959890;29;20042;-80
2023/07/01 09:26:57;;;;;;;10.75;9.75;;;25.70;91.40;;;;;;4955805;29;20379;-79
2023/07/01 09:29:31;;;;;;;9.75;8.80;;;25.20;90.10;;;;;;4957648;28;20026;-79
2023/07/01 09:31:57;;;;;;;10.98;9.00;;;25.40;91.20;;;;;;4958389;29;20427;-80
2023/07/01 09:34:24;;;;;;;10.80;8.13;;;25.60;91.00;;;;;;4957976;29;20079;-79
2023/07/01 09:36:51;;;;;;;9.93;9.02;;;25.90;90.80;;;;;;4957495;28;20110;-81
2023/07/01 09:39:32;;;;;;;9.73;8.83;;;26.30;90.40;;;;;;4937598;29;20098;-81
2023/07/01 09:42:03;;;;;;;13.35;9.07;;;26.60;87.90;;;;;;4955238;29;20027;-81
2023/07/01 09:44:30;;;;;;;10.40;9.38;;;26.70;89.50;;;;;;4954350;29;20019;-82
2023/07/01 09:46:56;;;;;;;10.32;9.32;;;26.70;88.40;;;;;;4955678;29;20155;-79
2023/07/01 22:01:38;;;;;;;32.33;29.25;;;24.80;93.10;;;;;;5315269;23;20098;-81
2023/07/01 22:04:06;;;;;;;31.35;28.25;;;24.80;93.30;;;;;;4955884;29;20042;-81
2023/07/01 22:06:37;;;;;;;32.42;29.30;;;24.80;93.30;;;;;;4938259;29;20388;-81
2023/07/01 22:09:03;;;;;;;32.78;29.48;;;24.70;93.30;;;;;;4936539;29;20078;-81
2023/07/01 22:11:29;;;;;;;32.42;29.33;;;24.70;93.90;;;;;;4938026;29;20499;-81
2023/07/01 22:13:55;;;;;;;31.43;28.20;;;24.70;94.00;;;;;;4920836;29;20036;-81
2023/07/01 22:16:21;;;;;;;29.55;26.50;;;24.70;94.10;;;;;;4935100;29;20472;-80
2023/07/01 22:18:51;;;;;;;31.77;28.67;;;24.60;94.20;;;;;;4917614;29;20492;-80
2023/07/01 22:21:17;;;;;;;31.90;28.45;;;24.60;94.10;;;;;;4934119;29;20279;-79
2023/07/01 22:23:43;;;;;;;;;;;24.50;94.00;;;;;;4917577;29;20429;-80
2023/07/01 22:26:09;;;;;;;32.42;29.25;;;24.50;94.10;;;;;;4945550;29;19910;-80
2023/07/01 22:28:35;;;;;;;33.37;29.97;;;24.40;94.30;;;;;;4925221;29;20597;-80
2023/07/01 22:31:01;;;;;;;32.28;29.17;;;24.30;94.80;;;;;;4951862;29;20034;-80
2023/07/01 22:33:28;;;;;;;32.97;29.67;;;24.30;95.00;;;;;;4954505;29;20470;-80
2023/07/01 22:35:55;;;;;;;34.15;30.65;;;24.30;95.20;;;;;;4937209;29;20035;-80
2023/07/01 22:38:21;;;;;;;34.05;30.50;;;24.20;95.40;;;;;;4936898;29;20038;-79
2023/07/01 22:40:47;;;;;;;32.15;28.95;;;24.20;95.40;;;;;;4955054;29;20519;-80
2023/07/01 22:43:13;;;;;;;32.50;29.40;;;24.20;95.40;;;;;;4921171;29;20386;-80
2023/07/01 22:45:41;;;;;;;34.30;30.93;;;24.20;95.60;;;;;;4920433;29;20028;-80
2023/07/01 22:48:07;;;;;;;32.97;29.73;;;24.20;95.60;;;;;;4938996;29;20031;-79
2023/07/01 22:50:33;;;;;;;32.10;28.77;;;24.20;95.90;;;;;;4939807;29;20028;-79
2023/07/01 22:52:59;;;;;;;32.17;29.03;;;24.10;96.10;;;;;;4939618;29;20031;-80
2023/07/01 22:55:26;;;;;;;34.30;30.83;;;24.10;96.20;;;;;;4922370;29;20118;-80
2023/07/01 22:57:52;;;;;;;34.65;31.05;;;24.10;96.60;;;;;;4938815;29;20106;-80
2023/07/01 23:00:19;;;;;;;34.37;31.10;;;24.10;96.70;;;;;;4921942;29;20547;-79
2023/07/01 23:02:45;;;;;;;33.55;30.27;;;24.00;96.90;;;;;;4939693;29;20042;-81
2023/07/01 23:05:11;;;;;;;35.85;32.35;;;24.00;96.90;;;;;;4939892;29;20151;-80
2023/07/01 23:07:38;;;;;;;34.83;31.45;;;23.90;96.90;;;;;;4940165;29;20027;-80
2023/07/01 23:10:04;;;;;;;;;;;23.90;96.90;;;;;;4922935;29;20031;-80
2023/07/01 23:12:32;;;;;;;36.15;32.28;;;23.90;96.80;;;;;;4922236;29;20311;-80
2023/07/01 23:14:59;;;;;;;36.28;32.58;;;23.90;96.90;;;;;;4939438;29;20035;-80
2023/07/01 23:17:26;;;;;;;40.35;34.78;;;23.90;97.10;;;;;;4906334;29;20113;-80
2023/07/01 23:19:53;;;;;;;42.28;37.83;;;23.80;97.20;;;;;;4939532;29;20481;-80
2023/07/01 23:22:20;;;;;;;;;;;23.80;97.00;;;;;;4939816;29;20038;-79
2023/07/01 23:24:46;;;;;;;43.90;39.57;;;23.80;97.40;;;;;;4922592;29;19929;-80
2023/07/01 23:27:17;;;;;;;44.80;40.38;;;23.70;97.20;;;;;;4922233;29;20099;-80
2023/07/01 23:29:50;;;;;;;41.55;37.50;;;23.70;97.20;;;;;;4936418;29;20393;-80
2023/07/01 23:32:28;;;;;;;43.20;38.78;;;23.70;97.20;;;;;;4937512;29;20034;-80
2023/07/01 23:34:56;;;;;;;46.55;41.95;;;23.70;97.20;;;;;;4920670;29;20038;-79
2023/07/01 23:37:23;;;;;;;47.17;42.42;;;23.70;97.30;;;;;;4920401;29;20036;-80
2023/07/01 23:39:50;;;;;;;45.70;41.08;;;23.70;97.40;;;;;;4920208;29;20087;-79
2023/07/01 23:42:15;;;;;;;38.40;34.42;;;23.70;97.40;;;;;;4920407;29;20453;-80
2023/07/01 23:44:41;;;;;;;40.33;36.20;;;23.60;97.50;;;;;;4937584;29;20035;-80
2023/07/01 23:47:07;;;;;;;41.23;37.03;;;23.50;97.50;;;;;;4937099;29;20036;-79
2023/07/01 23:49:34;;;;;;;40.10;36.17;;;23.50;97.60;;;;;;4919952;29;20034;-80
2023/07/01 23:52:02;;;;;;;40.83;36.58;;;23.50;97.90;;;;;;4935927;29;20034;-79
2023/07/01 23:54:29;;;;;;;42.10;37.88;;;23.50;98.10;;;;;;4937857;29;20050;-80
2023/07/01 23:56:55;;;;;;;43.70;39.25;;;23.50;98.20;;;;;;4936533;29;20030;-80
2023/07/01 23:59:21;;;;;;;37.65;33.95;;;23.40;98.40;;;;;;4919952;29;20043;-79
